Tiempo atmosférico en la estación meteorológica de Estepona, Málaga (15 m.)



Fecha
DESCASC
Temp. máxima en grados centígrados (hora)
DESCASC
Temp. mínima en grados centígrados (hora)
DESCASC
Temp. media en grados centígrados
DESCASC
Racha de viento máxima en m/sg (hora)
DESCASC
Velocidad máxima media en intervalos de 10 minutos(hora)
DESCASC
Precipitaciones diarias en mm
DESCASC
Precipitaciones de 00:00 a 06:00 en mm
DESCASC
Precipitaciones de 06:00 a 12:00 en mm
DESCASC
Precipitaciones de 12:00 a 18:00 en mm
DESCASC
Precipitaciones de 18:00 a 24:00 en mm
DESCASC
15-08-2019 27.6 (13:40) 19.3 (07:20) 23.4 4.17 (14:30) 2.22 (14:40) 0 0 0 0 0
14-08-2019 28.5 (13:40) 22.3 (00:00) 25.4 7.5 (14:30) 5.28 (12:40) 0 0 0 0 0
13-08-2019 30 (16:50) 19 (00:00) 24.5 6.67 (09:30) 4.17 (09:50) 0 0 0 0 0
12-08-2019 29.5 (15:10) 19.4 (00:00) 24.4 7.5 (23:30) 3.33 (23:20) 0 0 0 0 0
11-08-2019 39.8 (16:00) 21.3 (00:00) 30.5 13.33 (14:10) 7.5 (14:10) 0 0 0 0 0
10-08-2019 34.5 (20:10) 21.1 (00:00) 27.8 13.06 (20:50) 6.11 (20:40) 0 0 0 0 0
09-08-2019 39.2 (17:40) 20 (00:00) 29.6 14.17 (17:00) 6.67 (16:20) 0 0 0 0 0
08-08-2019 31.5 (13:00) 21.3 (00:00) 26.4 5.56 (19:00) 3.33 (18:40) 0 0 0 0 0
07-08-2019 39.8 (17:40) 20.4 (00:00) 30.1 12.5 (17:20) 6.94 (16:40) 0 0 0 0 0
06-08-2019 30.7 (15:00) 20.8 (00:00) 25.8 4.72 (18:40) 3.06 (18:30) 0 0 0 0 0
05-08-2019 29.5 (18:40) 20.4 (00:00) 24.9 6.11 (18:50) 3.33 (19:10) 0 0 0 0 0
04-08-2019 30 (17:20) 20.8 (00:00) 25.4 6.11 (22:10) 3.89 (22:00) 0 0 0 0 0
03-08-2019 28.8 (16:20) 19.9 (00:00) 24.3 7.5 (01:40) 4.17 (01:40) 0 0 0 0 0
02-08-2019 26.8 (11:50) 20.9 (00:00) 23.8 8.89 (17:00) 5.83 (16:50) 0 0 0 0 0
01-08-2019 31.2 (16:50) 22.7 (00:00) 27 6.67 (20:30) 4.44 (20:40) 0 0 0 0 0
31-07-2019 29.1 (14:50) 20.8 (00:00) 24.9 10 (02:20) 6.67 (09:40) 0 0 0 0 0
30-07-2019 27.7 (15:20) 19.5 (00:00) 23.6 6.11 (15:40) 3.61 (15:20) 0 0 0 0 0
29-07-2019 33.6 (19:40) 18.4 (00:00) 26 10.28 (19:30) 5.56 (19:30) 0 0 0 0 0
28-07-2019 30.9 (19:10) 21.5 (00:00) 26.2 13.06 (09:40) 6.67 (00:10) 0 0 0 0 0
27-07-2019 32 (15:50) 20.9 (00:00) 26.4 15.56 (13:00) 9.17 (12:40) 0 0 0 0 0
26-07-2019 34.6 (16:10) 20 (00:00) 27.3 15.56 (14:40) 8.06 (22:40) 0 0 0 0 0
25-07-2019 30.6 (18:40) 22.2 (00:00) 26.4 4.72 (01:30) 2.5 (02:10) 0 0 0 0 0
24-07-2019 32.1 (16:20) 23.4 (00:00) 27.7 6.11 (00:30) 3.89 (11:20) 0 0 0 0 0
23-07-2019 31.3 (15:20) 23.4 (00:00) 27.3 10.56 (13:30) 6.11 (00:40) 0 0 0 0 0
22-07-2019 29.6 (14:50) 24.3 (00:00) 26.9 10.83 (23:59) 4.72 (18:00) 0 0 0 0 0
21-07-2019 30.8 (14:20) 21 (00:00) 25.9 6.39 (22:40) 2.78 (22:40) 0 0 0 0 0
20-07-2019 32.1 (16:40) 22.8 (00:00) 27.4 7.5 (00:30) 3.61 (14:00) 0 0 0 0 0
19-07-2019 28.4 (15:20) 19.2 (00:00) 23.8 10.83 (15:20) 5.56 (13:40) 0 0 0 0 0

Gráficas

Temp. máximas Temp. mínimas Temp. medias Precipitaciones Rachas de viento máximas Velocidades máximas media en intervalos de 10 minutos

Datos horarios

Fecha y hora oficial Temperatura (ºC) Velocidad del viento (km/h) Dirección del viento Racha (km/h) Dirección de racha Precipitación (mm) Presión (hPa) Tendencia (hPa) Humedad (%)
2019-08-17 23:00:00 22.2 4 Sudoeste 8 Sudoeste 0 1012.8 1 79
2019-08-17 22:00:00 22.9 4 Sudoeste 8 Sudoeste 0 1012.1 -0.3 76
2019-08-17 21:00:00 24.1 3 Sudeste 6 Sudeste 0 1011.8 -1.2 70
2019-08-17 20:00:00 25.6 3 Sudeste 9 Este 0 1011.8 -1.4 66
2019-08-17 19:00:00 26 5 Este 10 Sudeste 0 1012.4 -1.5 65
2019-08-17 18:00:00 26.3 4 Sudeste 10 Sudeste 0 1013 -1.4 63
2019-08-17 17:00:00 26.5 7 Sudeste 13 Sudeste 0 1013.2 -1.6 62
2019-08-17 16:00:00 26.5 6 Este 14 Sudeste 0 1013.9 -1.1 61
2019-08-17 15:00:00 27.1 7 Este 14 Este 0 1014.4 -1.1 58
2019-08-17 14:00:00 26.4 7 Este 13 Sudeste 0 1014.8 -0.7 61
2019-08-17 13:00:00 26.5 4 Sur 11 Sudeste 0 1015 -0.4 59
2019-08-17 12:00:00 25 5 Sudeste 10 Sudeste 0 1015.5 0.3 66
2019-08-17 11:00:00 22.5 2 Sur 6 Oeste 0 1015.5 0.6 82
2019-08-17 10:00:00 21 2 Oeste 9 Oeste 0 1015.4 0.9 86
2019-08-17 09:00:00 20.4 2 Sur 6 Sudoeste 0 1015.2 0.8 86
2019-08-17 08:00:00 20.1 3 Oeste 8 Oeste 0 1014.9 0.1 85
2019-08-17 07:00:00 19.8 2 Sudoeste 5 Este 0 1014.5 -0.3 84
2019-08-17 06:00:00 19.4 0 Calma 5 Sudeste 0 1014.4 -0.6 81
2019-08-17 05:00:00 19.9 4 Este 5 Este 0 1014.8 -0.8 81
2019-08-17 04:00:00 20.1 0 Calma 3 Sur 0 1014.8 -1 80
2019-08-17 03:00:00 20.5 0 Calma 3 Sudoeste 0 1015 -0.7 79
2019-08-17 02:00:00 21.1 0 Calma 4 Sur 0 1015.6 0 78
2019-08-17 01:00:00 21.9 0 Calma 4 Este 0 1015.8 0.6 76
2019-08-17 00:00:00 22.5 3 Nordeste 4 Este 0 1015.7 0.8 75
2019-08-16 23:00:00 23 0 Calma 5 Sur 0 1015.6 0.9 73
2019-08-16 22:00:00 23.8 3 Sudoeste 6 Oeste 0 1015.2 0.3 69
2019-08-16 21:00:00 25.4 4 Sudoeste 6 Sudoeste 0 1014.9 -0.3 65
2019-08-16 20:00:00 27.3 3 Sudoeste 6 Sudoeste 0 1014.7 -1 59
2019-08-16 19:00:00 27.4 4 Sudoeste 7 Sudeste 0 1014.9 -1.3 59
2019-08-16 18:00:00 26.6 5 Sudeste 12 Sudeste 0 1015.2 -1.6 62
2019-08-16 17:00:00 27.1 6 Este 14 Sudeste 0 1015.7 -1.3 60
2019-08-16 16:00:00 26.5 6 Este 14 Sudeste 0 1016.2 -1.1 61
2019-08-16 15:00:00 26.2 6 Sudeste 15 Sudeste 0 1016.8 -0.5 61
2019-08-16 14:00:00 26.7 6 Sudeste 11 Este 0 1017 0.2 59
2019-08-16 13:00:00 26.9 5 Este 10 Sudeste 0 1017.3 0.6 57
2019-08-16 12:00:00 26.1 4 Este 9 Sudeste 0 1017.3 0.8 59
2019-08-16 11:00:00 24.5 4 Este 9 Este 0 1016.8 0.4 59
2019-08-16 10:00:00 21.3 3 Sudeste 8 Este 0 1016.7 0.9 73
2019-08-16 09:00:00 20 2 Sudeste 5 Este 0 1016.5 0.8 81
2019-08-16 08:00:00 19.2 2 Nordeste 6 Sur 0 1016.4 0.7 81
2019-08-16 07:00:00 20.1 0 Calma 5 Oeste 0 1015.8 0 80
2019-08-16 06:00:00 19.3 4 Sudoeste 6 Sudoeste 0 1015.7 -0.3 79
2019-08-16 05:00:00 19.4 2 Sudoeste 4 Oeste 0 1015.7 -0.7 78
2019-08-16 04:00:00 19.8 0 Calma 4 Este 0 1015.8 -0.7 79
2019-08-16 03:00:00 20.3 4 Este 5 Este 0 1016 -0.5 79
2019-08-16 02:00:00 20.9 0 Calma 4 Sudoeste 0 1016.4 0.1 79
2019-08-16 01:00:00 21.4 2 Sudoeste 4 Sudeste 0 1016.5 0.6 78
2019-08-16 00:00:00 21.8 2 Sudoeste 4 Sudoeste 0 1016.5 0.9 77
2019-08-15 23:00:00 22.5 3 Sudoeste 5 Sudoeste 0 1016.3 0.9 75
2019-08-15 22:00:00 23.3 4 Sudoeste 7 Sudoeste 0 1015.9 0.4 72
2019-08-15 21:00:00 24.7 3 Sudoeste 6 Sudoeste 0 1015.6 0 66
2019-08-15 20:00:00 26.4 2 Sudoeste 8 Sudeste 0 1015.4 -0.6 61
2019-08-15 19:00:00 27.3 4 Este 9 Este 0 1015.5 -0.8 57
2019-08-15 18:00:00 27.1 5 Este 12 Este 0 1015.6 -1.1 59
2019-08-15 17:00:00 27.6 6 Este 14 Este 0 1016 -1.1 58
2019-08-15 16:00:00 27.2 7 Este 15 Este 0 1016.3 -1.1 59
2019-08-15 15:00:00 26.7 8 Este 15 Este 0 1016.7 -0.8 59
2019-08-15 14:00:00 27.6 5 Este 11 Sudeste 0 1017.1 -0.2 58
2019-08-15 13:00:00 26.9 4 Sudeste 8 Sur 0 1017.4 0.2 61
2019-08-15 12:00:00 25 4 Sudoeste 8 Sudoeste 0 1017.5 0.5 70
2019-08-15 11:00:00 22.6 5 Sudoeste 9 Sudoeste 0 1017.3 0.8 83
2019-08-15 10:00:00 21.3 4 Sudoeste 7 Sudoeste 0 1017.2 1.1 85
2019-08-15 09:00:00 20.8 4 Sudoeste 8 Sudoeste 0 1017 1 85
2019-08-15 08:00:00 20.2 5 Oeste 9 Oeste 0 1016.5 0.3 85
2019-08-15 07:00:00 19.5 4 Sudoeste 7 Sudoeste 0 1016.1 -0.2 83
2019-08-15 06:00:00 19.6 2 Este 6 Nordeste 0 1016 -0.7 82
2019-08-15 05:00:00 20.6 0 Calma 5 Oeste 0 1016.2 -0.9 82
2019-08-15 04:00:00 20.8 3 Sudoeste 5 Sudoeste 0 1016.3 -0.9 81
2019-08-15 03:00:00 21.3 2 Sur 7 Este 0 1016.7 -0.7 80
2019-08-15 02:00:00 21.3 3 Este 6 Este 0 1017.1 0.1 81
2019-08-15 01:00:00 22.2 3 Este 5 Este 0 1017.2 0.7 81
2019-08-15 00:00:00 22.7 0 Calma 4 Este 0 1017.4 1.4 80
2019-08-14 23:00:00 23.1 0 Calma 5 Este 0 1017 1.2 78
2019-08-14 22:00:00 23.7 3 Este 9 Este 0 1016.5 0.3 77
2019-08-14 21:00:00 24.6 5 Nordeste 11 Este 0 1016 -0.4 74
2019-08-14 20:00:00 26.5 8 Este 14 Este 0 1015.8 -1 67
2019-08-14 19:00:00 27.3 9 Este 18 Este 0 1016.2 -1.2 64
2019-08-14 18:00:00 27 12 Este 18 Este 0 1016.4 -1.6 64
2019-08-14 17:00:00 28 12 Este 19 Este 0 1016.8 -1.6 61
2019-08-14 16:00:00 27.6 11 Este 24 Este 0 1017.4 -1.3 61
2019-08-14 15:00:00 28.2 14 Este 27 Este 0 1018 -0.8 60
2019-08-14 14:00:00 27.5 14 Este 25 Nordeste 0 1018.4 0 62
2019-08-14 13:00:00 27.7 15 Este 26 Nordeste 0 1018.7 0.4 62
2019-08-14 12:00:00 26.9 18 Este 24 Este 0 1018.8 0.9 66
2019-08-14 11:00:00 25.3 13 Este 21 Este 0 1018.4 0.7 72
2019-08-14 10:00:00 24.1 15 Nordeste 23 Este 0 1018.3 0.9 79
2019-08-14 09:00:00 23.6 14 Nordeste 24 Este 0 1017.9 0.7 83
2019-08-14 08:00:00 22.5 15 Nordeste 24 Este 0 1017.7 0.4 84
2019-08-14 07:00:00 22.7 12 Este 21 Este 0 1017.4 0 81
2019-08-14 06:00:00 23.7 13 Nordeste 21 Este 0 1017.2 -0.4 81
2019-08-14 05:00:00 22.9 12 Nordeste 19 Este 0 1017.3 -0.3 80
2019-08-14 04:00:00 22.9 8 Nordeste 21 Nordeste 0 1017.4 0 79
2019-08-14 03:00:00 24.1 12 Nordeste 24 Nordeste 0 1017.6 0.2 75
2019-08-14 02:00:00 24.6 11 Nordeste 23 Este 0 1017.6 0.6 72
2019-08-14 01:00:00 24.6 8 Nordeste 19 Este 0 1017.4 1 72
2019-08-14 00:00:00 24.7 6 Nordeste 17 Nordeste 0 1017.4 1.5 73
2019-08-13 23:00:00 24.8 8 Nordeste 19 Nordeste 0 1017 1.4 71
2019-08-13 22:00:00 24.7 8 Nordeste 17 Nordeste 0 1016.4 1 71
2019-08-13 21:00:00 25.9 9 Este 17 Este 0 1015.9 0.3 67
2019-08-13 20:00:00 27 11 Este 17 Este 0 1015.6 -0.2 62
2019-08-13 19:00:00 28.2 11 Este 18 Este 0 1015.4 -0.7 59
2019-08-13 18:00:00 29.6 10 Este 17 Este 0 1015.6 -0.7 55
2019-08-13 17:00:00 29.7 8 Este 14 Este 0 1015.8 -0.7 55
2019-08-13 16:00:00 29.5 8 Este 13 Este 0 1016.1 -0.6 56
2019-08-13 15:00:00 29.4 8 Este 13 Este 0 1016.3 -0.4 55
2019-08-13 14:00:00 28.8 6 Este 13 Este 0 1016.5 0.1 56
2019-08-13 13:00:00 28.7 6 Este 18 Este 0 1016.7 0.6 55
2019-08-13 12:00:00 27.6 8 Este 19 Este 0 1016.7 1.2 57
2019-08-13 11:00:00 26.5 12 Este 20 Este 0 1016.4 1.3 63
2019-08-13 10:00:00 25 13 Este 24 Nordeste 0 1016.1 1.6 63
2019-08-13 09:00:00 25.5 10 Nordeste 21 Este 0 1015.5 1.6 63
2019-08-13 08:00:00 23.1 8 Nordeste 20 Nordeste 0 1015.1 1 61
2019-08-13 07:00:00 21 7 Nordeste 14 Nordeste 0 1014.5 0.5 50
2019-08-13 06:00:00 19.9 4 Nordeste 6 Nordeste 0 1013.9 -0.5 50
2019-08-13 05:00:00 19.3 3 Noroeste 5 Oeste 0 1014.1 -0.6 52
2019-08-13 04:00:00 20.1 2 Sudoeste 8 Nordeste 0 1014 -1 62
2019-08-13 03:00:00 19.7 2 Sudoeste 5 Nordeste 0 1014.4 0 62
2019-08-13 02:00:00 20.1 4 Nordeste 14 Nordeste 0 1014.7 1.3 62
2019-08-13 01:00:00 21 8 Nordeste 19 Este 0 1015 2.4 62
2019-08-13 00:00:00 21.6 6 Nordeste 27 Nordeste 0 1014.4 2.9 52
2019-08-12 23:00:00 20.6 6 Nordeste 15 Este 0 1013.4 2.4 67
2019-08-12 22:00:00 21.9 4 Sudeste 14 Nordeste 0 1012.6 1.5 59
2019-08-12 21:00:00 23.2 6 Nordeste 14 Nordeste 0 1011.5 0.2 52
2019-08-12 20:00:00 26.1 7 Este 12 Este 0 1011 -0.7 42
2019-08-12 19:00:00 27.3 6 Este 13 Sudoeste 0 1011.1 -1.3 37
2019-08-12 18:00:00 28.8 7 Sudoeste 12 Oeste 0 1011.3 -1.8 31
2019-08-12 17:00:00 28.1 4 Este 15 Este 0 1011.7 -1.9 36
2019-08-12 16:00:00 27.8 4 Sudoeste 13 Sur 0 1012.4 -1.6 34
2019-08-12 15:00:00 29.1 4 Sur 14 Oeste 0 1013.1 -0.7 29
2019-08-12 14:00:00 27.2 6 Sudoeste 12 Sudoeste 0 1013.6 0 32
2019-08-12 13:00:00 25.2 4 Oeste 9 Sudoeste 0 1014 0.8 41
2019-08-12 12:00:00 24.8 4 Sudoeste 6 Oeste 0 1013.8 1 35
2019-08-12 11:00:00 25 3 Sudoeste 9 Este 0 1013.6 1.4 33
2019-08-12 10:00:00 23 2 Sudeste 10 Nordeste 0 1013.2 1.2 42
2019-08-12 09:00:00 20.4 4 Nordeste 11 Este 0 1012.8 0.8 54
2019-08-12 08:00:00 19.8 4 Oeste 9 Este 0 1012.2 0.1 56
2019-08-12 07:00:00 19.5 2 Oeste 6 Noroeste 0 1012 -0.4 53
2019-08-12 06:00:00 20.2 5 Nordeste 8 Oeste 0 1012 -0.7 51
2019-08-12 05:00:00 21.1 3 Oeste 5 Sudoeste 0 1012.1 -0.8 53
2019-08-12 04:00:00 22.4 3 Nordeste 11 Nordeste 0 1012.4 -0.7 48
2019-08-12 03:00:00 22 6 Nordeste 12 Este 0 1012.7 -0.3 54
2019-08-12 02:00:00 22.5 2 Nordeste 9 Nordeste 0 1012.9 -0.1 41
2019-08-12 01:00:00 23.4 3 Sudoeste 10 Nordeste 0 1013.1 0.6 35
2019-08-12 00:00:00 25.3 4 Oeste 9 Sudoeste 0 1013 0.9 36
2019-08-11 23:00:00 26.1 5 Nordeste 9 Nordeste 0 1013 1.3 29
2019-08-11 22:00:00 28.3 4 Sudoeste 22 Oeste 0 1012.5 1.2 23
2019-08-11 21:00:00 31.8 12 Oeste 34 Oeste 0 1012.1 1 13
2019-08-11 20:00:00 34.9 16 Oeste 40 Oeste 0 1011.7 0.3 11
2019-08-11 19:00:00 36.6 17 Oeste 41 Oeste 0 1011.3 -0.7 11
2019-08-11 18:00:00 38.2 22 Oeste 39 Oeste 0 1011.1 -1.3 10
2019-08-11 17:00:00 38.6 19 Oeste 39 Oeste 0 1011.4 -1.5 10
2019-08-11 16:00:00 39.8 11 Oeste 28 Oeste 0 1012 -1.6 10
2019-08-11 15:00:00 37.9 13 Oeste 48 Oeste 0 1012.4 -1.9 11
2019-08-11 14:00:00 35.8 26 Sudoeste 44 Sudoeste 0 1012.9 -1.1 13
2019-08-11 13:00:00 33.8 24 Sudoeste 46 Sudoeste 0 1013.6 -0.2 17
2019-08-11 12:00:00 27.6 5 Nordeste 25 Este 0 1014.3 0.9 40
2019-08-11 11:00:00 28.2 6 Sudoeste 22 Oeste 0 1014 0.9 27
2019-08-11 10:00:00 24.9 6 Este 12 Este 0 1013.8 1.1 54
2019-08-11 09:00:00 22.3 2 Oeste 6 Sudoeste 0 1013.4 0.8 62
2019-08-11 08:00:00 21.4 3 Noroeste 16 Este 0 1013.1 0.6 64
2019-08-11 07:00:00 22.8 3 Este 19 Noroeste 0 1012.7 0.2 55
2019-08-11 06:00:00 22.4 2 Norte 13 Este 0 1012.6 0.1 51
2019-08-11 05:00:00 23.5 5 Oeste 24 Oeste 0 1012.5 0 45
2019-08-11 04:00:00 23.2 7 Este 12 Este 0 1012.5 -0.4 62
2019-08-11 03:00:00 23.7 6 Norte 24 Este 0 1012.5 -0.8 56
2019-08-11 02:00:00 25.1 8 Nordeste 23 Oeste 0 1012.5 -0.9 54
2019-08-11 01:00:00 27.2 15 Oeste 32 Oeste 0 1012.9 0.3 38
2019-08-11 00:00:00 27.4 18 Oeste 31 Oeste 0 1013.3 1.6 41
2019-08-10 23:00:00 27.8 18 Sudoeste 36 Sudoeste 0 1013.4 2 44
2019-08-10 22:00:00 29.8 18 Sudoeste 32 Sudoeste 0 1012.6 1 38
2019-08-10 21:00:00 32.5 18 Oeste 47 Sudoeste 0 1011.7 -0.4 32
2019-08-10 20:00:00 33.9 19 Oeste 36 Oeste 0 1011.4 -1.5 31
2019-08-10 19:00:00 28 12 Este 19 Este 0 1011.6 -2.2 51
2019-08-10 18:00:00 28.2 12 Este 21 Nordeste 0 1012.1 -2.6 51
2019-08-10 17:00:00 28.2 12 Este 19 Este 0 1012.9 -2.3 52
2019-08-10 16:00:00 29.1 8 Este 17 Este 0 1013.8 -1.8 48
2019-08-10 15:00:00 28 10 Nordeste 19 Este 0 1014.7 -1.1 52
2019-08-10 14:00:00 28.2 10 Este 17 Este 0 1015.2 -0.1 51
2019-08-10 13:00:00 28.7 8 Este 19 Este 0 1015.6 0.7 50
2019-08-10 12:00:00 27.2 5 Este 14 Este 0 1015.8 1.5 52
2019-08-10 11:00:00 27.3 7 Este 12 Este 0 1015.3 1.6 50
2019-08-10 10:00:00 25 4 Este 10 Este 0 1014.9 1.6 56
2019-08-10 09:00:00 23 4 Este 10 Este 0 1014.3 0.5 61
2019-08-10 08:00:00 21.7 3 Noroeste 12 Nordeste 0 1013.7 -0.7 59
2019-08-10 07:00:00 21.7 4 Este 8 Sudoeste 0 1013.3 -1.1 63
2019-08-10 06:00:00 21.2 5 Nordeste 9 Nordeste 0 1013.8 -0.6 64
2019-08-10 05:00:00 22 3 Sudoeste 12 Nordeste 0 1014.4 0.1 66
2019-08-10 04:00:00 21.1 7 Nordeste 11 Este 0 1014.4 0 65
2019-08-10 03:00:00 22 4 Nordeste 9 Nordeste 0 1014.4 0.3 61
2019-08-10 02:00:00 22.9 4 Este 6 Nordeste 0 1014.3 0.7 63
2019-08-10 01:00:00 23.1 4 Este 6 Nordeste 0 1014.4 1.6 64
2019-08-10 00:00:00 23.7 5 Nordeste 9 Este 0 1014.1 2 62
2019-08-09 23:00:00 25 5 Nordeste 9 Nordeste 0 1013.6 2 59
2019-08-09 22:00:00 25.3 4 Nordeste 10 Este 0 1012.8 1.5 55
2019-08-09 21:00:00 25.8 8 Nordeste 25 Este 0 1012.1 0.5 54
2019-08-09 20:00:00 29.8 16 Nordeste 32 Oeste 0 1011.6 -0.6 41
2019-08-09 19:00:00 37.7 18 Oeste 44 Sudoeste 0 1011.3 -1.7 21
2019-08-09 18:00:00 38.8 21 Oeste 40 Oeste 0 1011.6 -2.2 17
2019-08-09 17:00:00 38.6 24 Oeste 51 Oeste 0 1012.2 -1.8 16
2019-08-09 16:00:00 33.6 10 Sur 31 Sudoeste 0 1013 -1.2 25
2019-08-09 15:00:00 28.6 15 Este 26 Nordeste 0 1013.8 -0.6 46
2019-08-09 14:00:00 31.6 9 Nordeste 22 Nordeste 0 1014 0.2 30
2019-08-09 13:00:00 31 9 Este 19 Este 0 1014.2 0.5 39
2019-08-09 12:00:00 27.5 9 Nordeste 18 Este 0 1014.4 0.8 47
2019-08-09 11:00:00 26.4 9 Este 17 Este 0 1013.8 0.2 46
2019-08-09 10:00:00 25.1 5 Este 11 Este 0 1013.7 0.3 40
2019-08-09 09:00:00 22.7 3 Nordeste 5 Nordeste 0 1013.6 0.6 53
2019-08-09 08:00:00 20.2 2 Norte 5 Oeste 0 1013.6 0.5 61
2019-08-09 07:00:00 21.1 0 Calma 12 Nordeste 0 1013.4 0 56
2019-08-09 06:00:00 21.4 5 Norte 12 Nordeste 0 1013 -0.4 54
2019-08-09 05:00:00 21.5 3 Nordeste 13 Este 0 1013.1 -0.1 62
2019-08-09 04:00:00 21.7 3 Nordeste 11 Este 0 1013.4 0.5 61
2019-08-09 03:00:00 20.7 5 Nordeste 10 Este 0 1013.4 0.6 61
2019-08-09 02:00:00 20.5 7 Nordeste 12 Este 0 1013.2 0.8 67
2019-08-09 01:00:00 21 3 Nordeste 8 Nordeste 0 1012.9 1.4 71
2019-08-09 00:00:00 22.1 6 Nordeste 9 Nordeste 0 1012.8 1.8 74
2019-08-08 23:00:00 22.4 5 Nordeste 8 Nordeste 0 1012.4 1.7 71
2019-08-08 22:00:00 23.3 0 Calma 8 Este 0 1011.5 0.6 67
2019-08-08 21:00:00 24.2 6 Nordeste 10 Este 0 1011 -0.1 63
2019-08-08 20:00:00 25.4 9 Este 18 Este 0 1010.7 -0.7 60
2019-08-08 19:00:00 26.6 11 Este 20 Este 0 1010.9 -1.1 56
2019-08-08 18:00:00 26.9 10 Este 16 Este 0 1011.1 -1.2 55
2019-08-08 17:00:00 27.8 10 Este 16 Este 0 1011.4 -1.1 50
2019-08-08 16:00:00 28.8 5 Sudeste 11 Sudeste 0 1012 -0.6 44
2019-08-08 15:00:00 29.3 4 Sudeste 12 Sudeste 0 1012.3 -0.4 45
2019-08-08 14:00:00 29.6 4 Sur 9 Este 0 1012.5 0.1 46
2019-08-08 13:00:00 31.1 4 Sudeste 10 Sudoeste 0 1012.6 0.6 30
2019-08-08 12:00:00 28.1 3 Sudoeste 11 Este 0 1012.7 1 41
2019-08-08 11:00:00 26 6 Este 15 Este 0 1012.4 1.3 55
2019-08-08 10:00:00 25.6 6 Este 13 Nordeste 0 1012 1.3 53
2019-08-08 09:00:00 23.2 6 Nordeste 11 Este 0 1011.7 1.2 53
2019-08-08 08:00:00 22.2 2 Norte 8 Oeste 0 1011.1 0.4 51
2019-08-08 07:00:00 22.7 4 Oeste 10 Noroeste 0 1010.7 -0.3 57
2019-08-08 06:00:00 21.5 3 Oeste 7 Norte 0 1010.5 -0.7 59
2019-08-08 05:00:00 21.3 3 Nordeste 9 Este 0 1010.7 -0.9 65
2019-08-08 04:00:00 21.5 3 Oeste 8 Este 0 1011 -0.8 66
2019-08-08 03:00:00 21.4 5 Nordeste 8 Nordeste 0 1011.2 -0.5 64
2019-08-08 02:00:00 22.3 0 Calma 4 Sudeste 0 1011.6 0.1 68
2019-08-08 01:00:00 22.9 3 Oeste 8 Nordeste 0 1011.8 1.2 67
2019-08-08 00:00:00 24 4 Nordeste 7 Este 0 1011.7 1.9 62
2019-08-07 23:00:00 24.7 4 Nordeste 12 Nordeste 0 1011.5 2.3 58
2019-08-07 22:00:00 24.8 5 Nordeste 13 Este 0 1010.6 1.4 58
2019-08-07 21:00:00 25.8 5 Nordeste 16 Nordeste 0 1009.8 1.1 56
2019-08-07 20:00:00 26.1 10 Nordeste 22 Nordeste 0 1009.2 0.5 55
2019-08-07 19:00:00 29.7 11 Nordeste 28 Este 0 1009.2 -0.2 42
2019-08-07 18:00:00 35.8 12 Este 45 Sudoeste 0 1008.7 -1.3 26
2019-08-07 17:00:00 39.1 24 Sudoeste 45 Oeste 0 1008.7 -2 14
2019-08-07 16:00:00 33.6 8 Nordeste 23 Este 0 1009.4 -1.7 27
2019-08-07 15:00:00 30.5 10 Nordeste 19 Este 0 1010 -1.5 40
2019-08-07 14:00:00 30.7 10 Este 19 Nordeste 0 1010.7 -0.5 42
2019-08-07 13:00:00 29.5 13 Este 19 Este 0 1011.1 -0.1 43
2019-08-07 12:00:00 28.5 8 Este 14 Este 0 1011.5 0.7 41
2019-08-07 11:00:00 26.9 4 Este 9 Este 0 1011.2 0.8 37
2019-08-07 10:00:00 24.3 5 Este 9 Este 0 1011.2 1.3 50
2019-08-07 09:00:00 22.1 3 Sudoeste 14 Sudoeste 0 1010.8 1.3 54
2019-08-07 08:00:00 21 4 Nordeste 13 Este 0 1010.4 1 57
2019-08-07 07:00:00 20.8 4 Este 10 Noroeste 0 1009.9 0.1 55
2019-08-07 06:00:00 21.1 4 Noroeste 16 Este 0 1009.5 -0.3 61
2019-08-07 05:00:00 21.2 3 Noroeste 5 Noroeste 0 1009.4 -0.2 61
2019-08-07 04:00:00 22.3 2 Norte 22 Nordeste 0 1009.8 -0.1 56
2019-08-07 03:00:00 22.3 8 Nordeste 19 Este 0 1009.8 -0.6 51
2019-08-07 02:00:00 22.5 4 Norte 10 Nordeste 0 1009.6 -0.7 50
2019-08-07 01:00:00 22 2 Norte 8 Nordeste 0 1009.9 -0.1 64
2019-08-07 00:00:00 22.2 6 Nordeste 10 Este 0 1010.4 1 70
2019-08-06 23:00:00 22.6 5 Nordeste 9 Nordeste 0 1010.3 1.6 67
2019-08-06 22:00:00 23.6 3 Sudoeste 10 Este 0 1010 1.3 64
2019-08-06 21:00:00 25.7 5 Este 8 Nordeste 0 1009.4 0.1 57
2019-08-06 20:00:00 27.2 4 Este 16 Este 0 1008.7 -1.3 45
2019-08-06 19:00:00 27.7 9 Este 17 Este 0 1008.7 -2 48
2019-08-06 18:00:00 29 7 Este 12 Nordeste 0 1009.3 -2.1 39
2019-08-06 17:00:00 28.4 6 Este 10 Este 0 1010 -2.1 46
2019-08-06 16:00:00 28 5 Este 16 Sudeste 0 1010.7 -1.4 46
2019-08-06 15:00:00 30.7 5 Este 12 Sudeste 0 1011.4 -1.1 28
2019-08-06 14:00:00 27.9 4 Sur 12 Sur 0 1012.1 -0.4 40
2019-08-06 13:00:00 28.1 3 Sur 10 Sudeste 0 1012.1 -0.7 39
2019-08-06 12:00:00 26.6 3 Sudoeste 9 Sudeste 0 1012.5 0.3 43
2019-08-06 11:00:00 24.4 5 Este 15 Este 0 1012.5 0.8 52
2019-08-06 10:00:00 22.6 10 Este 16 Este 0 1012.8 1.1 60
2019-08-06 09:00:00 22.4 7 Este 15 Este 0 1012.2 0.3 69
2019-08-06 08:00:00 21.1 2 Noroeste 9 Oeste 0 1011.7 -0.9 69
2019-08-06 07:00:00 21.1 4 Sudoeste 6 Sur 0 1011.7 -0.8 71
2019-08-06 06:00:00 21.1 3 Oeste 6 Nordeste 0 1011.9 -0.4 71
2019-08-06 05:00:00 21.3 2 Oeste 4 Sudoeste 0 1012.6 0.2 73
2019-08-06 04:00:00 21.6 3 Oeste 9 Nordeste 0 1012.5 0.2 72
2019-08-06 03:00:00 21.6 5 Nordeste 8 Norte 0 1012.3 0 75
2019-08-06 02:00:00 22.1 2 Nordeste 10 Este 0 1012.4 0.3 74
2019-08-06 01:00:00 22.1 3 Nordeste 8 Nordeste 0 1012.3 0.9 70
2019-08-06 00:00:00 22.5 3 Nordeste 8 Sur 0 1012.3 1.4 69
2019-08-05 23:00:00 23.7 3 Sudoeste 7 Sudoeste 0 1012.1 1.6 66
2019-08-05 22:00:00 23.8 4 Nordeste 6 Este 0 1011.4 0.6 62
2019-08-05 21:00:00 24.3 3 Nordeste 13 Este 0 1010.9 -0.4 63
2019-08-05 20:00:00 25.7 9 Este 20 Nordeste 0 1010.5 -1 58
2019-08-05 19:00:00 26.8 12 Este 22 Este 0 1010.8 -1.3 52
2019-08-05 18:00:00 27.5 9 Este 14 Este 0 1011.3 -1.1 46
2019-08-05 17:00:00 27.3 9 Este 17 Este 0 1011.5 -1.4 49
2019-08-05 16:00:00 27.5 9 Este 17 Este 0 1012.1 -0.8 55
2019-08-05 15:00:00 28.1 10 Este 18 Este 0 1012.4 -0.3 48
2019-08-05 14:00:00 26.5 10 Este 18 Nordeste 0 1012.9 0.1 57
2019-08-05 13:00:00 26.5 4 Sudoeste 9 Sur 0 1012.9 -0.2 58
2019-08-05 12:00:00 26.4 4 Sudoeste 8 Sur 0 1012.7 -0.2 59
2019-08-05 11:00:00 25.4 3 Sur 9 Sur 0 1012.8 0 64
2019-08-05 10:00:00 23 3 Sudoeste 6 Sudoeste 0 1013.1 0.5 72
2019-08-05 09:00:00 21.4 5 Sudoeste 10 Oeste 0 1012.9 0.4 79
2019-08-05 08:00:00 20.5 2 Oeste 5 Nordeste 0 1012.8 0.3 82
2019-08-05 07:00:00 20.8 4 Nordeste 6 Nordeste 0 1012.6 -0.2 82
2019-08-05 06:00:00 20.5 3 Nordeste 7 Nordeste 0 1012.5 -0.5 81
2019-08-05 05:00:00 20.8 5 Nordeste 7 Este 0 1012.5 -0.9 79
2019-08-05 04:00:00 21.3 3 Este 12 Oeste 0 1012.8 0.2 78
2019-08-05 03:00:00 21.2 3 Oeste 10 Nordeste 0 1013 0.2 79
2019-08-05 02:00:00 21.2 5 Nordeste 13 Este 0 1013.4 0.4 79
2019-08-05 01:00:00 21.3 2 Sur 7 Nordeste 0 1012.6 0.4 78
2019-08-05 00:00:00 21.6 5 Este 12 Nordeste 0 1012.8 1.1 77
2019-08-04 23:00:00 21.8 7 Nordeste 22 Este 0 1013 1.7 76
2019-08-04 22:00:00 22.4 14 Este 21 Nordeste 0 1012.2 0.7 73
2019-08-04 21:00:00 24.5 7 Nordeste 12 Este 0 1011.7 -0.1 60
2019-08-04 20:00:00 26.5 7 Este 11 Nordeste 0 1011.3 -0.8 51
2019-08-04 19:00:00 28 5 Este 9 Este 0 1011.5 -0.8 45
2019-08-04 18:00:00 29 3 Sudeste 10 Oeste 0 1011.8 -0.8 44
2019-08-04 17:00:00 29 3 Sur 12 Este 0 1012.1 -1 45
2019-08-04 16:00:00 28.6 5 Este 11 Este 0 1012.3 -0.8 46
2019-08-04 15:00:00 28.9 5 Este 10 Este 0 1012.6 -0.4 44
2019-08-04 14:00:00 27.9 3 Sudoeste 10 Nordeste 0 1013.1 -0.1 47
2019-08-04 13:00:00 27.4 4 Sudoeste 9 Sudoeste 0 1013.1 0 48
2019-08-04 12:00:00 26.7 5 Este 13 Este 0 1013 0 52
2019-08-04 11:00:00 25.5 9 Este 14 Nordeste 0 1013.2 0.3 53
2019-08-04 10:00:00 22.9 4 Este 8 Este 0 1013.1 0.1 69
2019-08-04 09:00:00 21.8 0 Calma 4 Nordeste 0 1013 -0.2 77
2019-08-04 08:00:00 20.9 0 Calma 3 Sudeste 0 1012.9 -0.5 78
2019-08-04 07:00:00 21.1 0 Calma 11 Oeste 0 1013 -0.8 77
2019-08-04 06:00:00 21.2 6 Sudoeste 12 Oeste 0 1013.2 -0.5 76
2019-08-04 05:00:00 20.8 4 Sudoeste 8 Oeste 0 1013.4 -0.6 79
2019-08-04 04:00:00 21 5 Sudoeste 8 Sudoeste 0 1013.8 0.1 78
2019-08-04 03:00:00 21.3 2 Sudoeste 5 Sudoeste 0 1013.7 0.2 77
2019-08-04 02:00:00 21.6 4 Nordeste 11 Este 0 1014 0.9 77
2019-08-04 01:00:00 21.6 6 Nordeste 11 Este 0 1013.7 1.2 77
2019-08-04 00:00:00 22 6 Nordeste 9 Este 0 1013.5 1.4 74
2019-08-03 23:00:00 23.1 2 Sudoeste 12 Oeste 0 1013.1 1 70
2019-08-03 22:00:00 23.8 5 Sudoeste 12 Sudoeste 0 1012.5 0.4 68
2019-08-03 21:00:00 24.9 6 Sudoeste 11 Sudoeste 0 1012.1 -0.5 62
2019-08-03 20:00:00 27.2 6 Sudoeste 12 Sudoeste 0 1012.1 -1.2 55
2019-08-03 19:00:00 28.1 3 Sudoeste 8 Sudoeste 0 1012.1 -1.5 51
2019-08-03 18:00:00 27.8 4 Sudoeste 8 Sudoeste 0 1012.6 -1.4 52
2019-08-03 17:00:00 28.3 5 Sudoeste 11 Sudoeste 0 1013.3 -0.8 50
2019-08-03 16:00:00 28 5 Sudoeste 10 Sudoeste 0 1013.6 -1.1 45
2019-08-03 15:00:00 27.3 4 Sudoeste 9 Sudoeste 0 1014 -0.8 52
2019-08-03 14:00:00 27.4 6 Sudoeste 10 Sudoeste 0 1014.1 -0.7 54
2019-08-03 13:00:00 26.3 4 Sudoeste 10 Sudeste 0 1014.7 0.4 57
2019-08-03 12:00:00 25.6 5 Este 10 Este 0 1014.8 1 59
2019-08-03 11:00:00 25 4 Sudeste 8 Sudeste 0 1014.8 1.4 60
2019-08-03 10:00:00 22.9 4 Sudoeste 6 Sudoeste 0 1014.3 1.3 66
2019-08-03 09:00:00 21.2 2 Sur 5 Sur 0 1013.8 1 72
2019-08-03 08:00:00 20.1 0 Calma 4 Nordeste 0 1013.4 0.3 75
2019-08-03 07:00:00 20.2 2 Sudoeste 4 Oeste 0 1013 -0.5 76
2019-08-03 06:00:00 20.2 0 Calma 3 Nordeste 0 1012.8 -0.8 74
2019-08-03 05:00:00 20.4 0 Calma 3 Sudoeste 0 1013.1 -0.2 73
2019-08-03 04:00:00 21 0 Calma 9 Nordeste 0 1013.5 -0.6 71
2019-08-03 03:00:00 21.2 5 Nordeste 22 Este 0 1013.6 0.1 72
2019-08-03 02:00:00 20.8 12 Nordeste 27 Este 0 1013.3 0.6 78
2019-08-03 01:00:00 21.2 6 Este 17 Este 0 1014.1 2.1 79
2019-08-03 00:00:00 21.7 4 Sudoeste 10 Sudoeste 0 1013.5 1.6 79
2019-08-02 23:00:00 22 4 Este 12 Nordeste 0 1012.7 1 76
2019-08-02 22:00:00 23.1 2 Este 8 Este 0 1012 0.1 67
2019-08-02 21:00:00 23.9 6 Este 13 Este 0 1011.9 -0.5 66
2019-08-02 20:00:00 25.5 7 Este 15 Este 0 1011.7 -1 65
2019-08-02 19:00:00 26.4 8 Nordeste 21 Este 0 1011.9 -1.1 64
2019-08-02 18:00:00 25.6 12 Este 28 Nordeste 0 1012.4 -0.6 65
2019-08-02 17:00:00 26.4 20 Nordeste 32 Este 0 1012.7 -0.5 60
2019-08-02 16:00:00 26.4 17 Este 29 Nordeste 0 1013 -0.1 60
2019-08-02 15:00:00 26.6 15 Este 26 Nordeste 0 1013 0.1 57
2019-08-02 14:00:00 25.9 15 Este 23 Este 0 1013.2 0.8 58
2019-08-02 13:00:00 25.2 8 Este 24 Este 0 1013.1 1.1 62
2019-08-02 12:00:00 25.8 13 Este 19 Este 0 1012.9 0.5 58
2019-08-02 11:00:00 25.5 3 Este 18 Sudeste 0 1012.4 0.1 58
2019-08-02 10:00:00 23.3 3 Sudoeste 7 Sudoeste 0 1012 -0.5 75
2019-08-02 09:00:00 22.1 5 Sudoeste 10 Oeste 0 1012.4 -0.1 81
2019-08-02 08:00:00 21 0 Calma 5 Sudeste 0 1012.3 -0.5 80
2019-08-02 07:00:00 21.2 0 Calma 8 Nordeste 0 1012.5 -0.2 80
2019-08-02 06:00:00 21.5 3 Este 10 Nordeste 0 1012.5 -0.4 79
2019-08-02 05:00:00 21.4 2 Sudeste 7 Sur 0 1012.8 0 75
2019-08-02 04:00:00 22.1 3 Sudoeste 13 Nordeste 0 1012.7 0.1 72
2019-08-02 03:00:00 22.3 4 Nordeste 10 Nordeste 0 1012.9 0.3 72
2019-08-02 02:00:00 23 4 Nordeste 13 Este 0 1012.8 0.8 73
2019-08-02 01:00:00 22.8 6 Nordeste 11 Este 0 1012.6 1 73
2019-08-02 00:00:00 22.9 5 Nordeste 11 Este 0 1012.6 1.6 73
2019-08-01 23:00:00 23.4 3 Sudoeste 9 Este 0 1012 1.2 71
2019-08-01 22:00:00 24.1 5 Este 22 Oeste 0 1011.6 0.8 63
2019-08-01 21:00:00 25.8 13 Oeste 24 Sudoeste 0 1011 0 58
2019-08-01 20:00:00 28.5 10 Oeste 16 Oeste 0 1010.8 -0.7 49
2019-08-01 19:00:00 30 9 Sudoeste 15 Sudoeste 0 1010.8 -1.4 45
2019-08-01 18:00:00 30.1 7 Sudoeste 12 Sudoeste 0 1011 -1.3 45
2019-08-01 17:00:00 30.9 5 Sudoeste 13 Sudoeste 0 1011.5 -1.3 43
2019-08-01 16:00:00 30.8 9 Sudoeste 15 Sudoeste 0 1012.2 -0.8 44
2019-08-01 15:00:00 29.9 6 Sudoeste 12 Sudoeste 0 1012.3 -0.6 48
2019-08-01 14:00:00 29.5 6 Sudoeste 11 Sudoeste 0 1012.8 0.1 50
2019-08-01 13:00:00 28.3 8 Sudoeste 12 Sudoeste 0 1013 0.5 52
2019-08-01 12:00:00 27.6 5 Sudoeste 9 Sur 0 1012.9 0.5 54
2019-08-01 11:00:00 27.9 6 Este 14 Este 0 1012.7 0.8 54
2019-08-01 10:00:00 24.7 4 Nordeste 12 Este 0 1012.5 0.6 66
2019-08-01 09:00:00 25 6 Nordeste 17 Este 0 1012.4 0.5 64
2019-08-01 08:00:00 24.4 6 Nordeste 20 Nordeste 0 1011.9 -0.3 67
2019-08-01 07:00:00 24.5 8 Nordeste 21 Nordeste 0 1011.9 -0.3 67
2019-08-01 06:00:00 24.5 7 Nordeste 20 Nordeste 0 1011.9 -0.5 67
2019-08-01 05:00:00 23.6 8 Nordeste 17 Nordeste 0 1012.2 -0.4 70
2019-08-01 04:00:00 23.1 6 Nordeste 14 Este 0 1012.2 -0.5 70
2019-08-01 03:00:00 24.3 6 Nordeste 15 Nordeste 0 1012.4 0.1 66
2019-08-01 02:00:00 24.1 7 Nordeste 14 Nordeste 0 1012.6 0.4 68
2019-08-01 01:00:00 23.3 7 Nordeste 23 Este 0 1012.7 0.9 71
2019-08-01 00:00:00 24 16 Este 26 Nordeste 0 1012.3 0.9 68
2019-07-31 23:00:00 23.6 12 Nordeste 29 Nordeste 0 1012.2 1 70
2019-07-31 22:00:00 23.5 12 Nordeste 23 Nordeste 0 1011.8 0.9 69
2019-07-31 21:00:00 25.3 13 Nordeste 26 Este 0 1011.4 0.2 62
2019-07-31 20:00:00 26.8 14 Este 24 Este 0 1011.2 -0.3 56
2019-07-31 19:00:00 28 14 Este 24 Este 0 1010.9 -0.9 51
2019-07-31 18:00:00 28.1 15 Este 23 Nordeste 0 1011.2 -1 50
2019-07-31 17:00:00 27.8 12 Este 25 Este 0 1011.5 -1.1 50
2019-07-31 16:00:00 29 13 Este 24 Este 0 1011.8 -1 46
2019-07-31 15:00:00 28.4 16 Este 31 Nordeste 0 1012.2 -0.8 49
2019-07-31 14:00:00 28.6 21 Este 32 Nordeste 0 1012.6 -0.5 49
2019-07-31 13:00:00 28 22 Este 36 Nordeste 0 1012.8 0.1 52
2019-07-31 12:00:00 27 20 Este 32 Nordeste 0 1013 0.5 56
2019-07-31 11:00:00 26.5 19 Este 34 Este 0 1013.1 1.3 54
2019-07-31 10:00:00 25.4 19 Nordeste 35 Nordeste 0 1012.7 1.5 60
2019-07-31 09:00:00 24.7 19 Nordeste 30 Nordeste 0 1012.5 1 59
2019-07-31 08:00:00 24.3 9 Nordeste 23 Nordeste 0 1011.8 0.5 54
2019-07-31 07:00:00 23.4 7 Nordeste 26 Nordeste 0 1011.2 0 63
2019-07-31 06:00:00 23.2 6 Nordeste 16 Nordeste 0 1011.5 0.2 67
2019-07-31 05:00:00 22.4 8 Nordeste 25 Este 0 1011.3 -1 69
2019-07-31 04:00:00 22 14 Nordeste 27 Nordeste 0 1011.2 0.2 71
2019-07-31 03:00:00 22.1 7 Nordeste 36 Nordeste 0 1011.3 -0.5 72
2019-07-31 02:00:00 22.7 13 Nordeste 31 Este 0 1012.3 0.5 64
2019-07-31 01:00:00 23.2 9 Nordeste 20 Nordeste 0 1011 0.6 48
2019-07-31 00:00:00 20.8 7 Nordeste 15 Nordeste 0 1011.8 2.3 71
2019-07-30 23:00:00 21.5 5 Nordeste 6 Este 0 1011.8 2.1 70
2019-07-30 22:00:00 22.8 3 Este 10 Nordeste 0 1010.4 0.5 65
2019-07-30 21:00:00 24.7 6 Nordeste 10 Este 0 1009.5 -0.8 48
2019-07-30 20:00:00 25.8 5 Este 15 Este 0 1009.7 -0.8 45
2019-07-30 19:00:00 25.3 8 Este 15 Este 0 1009.9 -1 57
2019-07-30 18:00:00 26.3 9 Este 16 Nordeste 0 1010.3 -1 56
2019-07-30 17:00:00 26.3 10 Este 19 Este 0 1010.5 -1.1 55
2019-07-30 16:00:00 25.7 11 Este 22 Este 0 1010.9 -1.1 54
2019-07-30 15:00:00 26.9 10 Este 19 Nordeste 0 1011.3 -0.8 43
2019-07-30 14:00:00 26 8 Este 13 Este 0 1011.6 0 53
2019-07-30 13:00:00 24.7 5 Este 17 Este 0 1012 0.5 59
2019-07-30 12:00:00 24.3 9 Este 16 Este 0 1012.1 0.7 60
2019-07-30 11:00:00 24.2 3 Este 10 Sudeste 0 1011.6 0.7 59
2019-07-30 10:00:00 22.9 2 Sudoeste 9 Sudeste 0 1011.5 1.3 58
2019-07-30 09:00:00 21.3 3 Oeste 11 Nordeste 0 1011.4 1.4 62
2019-07-30 08:00:00 19.5 4 Nordeste 10 Este 0 1010.9 1.1 62
2019-07-30 07:00:00 21.4 3 Oeste 7 Noroeste 0 1010.2 0.7 55
2019-07-30 06:00:00 23.4 4 Noroeste 10 Este 0 1010 0.4 41
2019-07-30 05:00:00 20.9 5 Nordeste 12 Este 0 1009.8 -0.1 62
2019-07-30 04:00:00 22 2 Noroeste 6 Nordeste 0 1009.5 -0.6 52
2019-07-30 03:00:00 23 3 Oeste 7 Norte 0 1009.6 -0.5 50
2019-07-30 02:00:00 23.5 3 Norte 8 Nordeste 0 1009.9 -0.1 51
2019-07-30 01:00:00 23.5 3 Oeste 8 Nordeste 0 1010.1 0.9 56
2019-07-30 00:00:00 23.1 3 Norte 7 Noroeste 0 1010.1 1.4 60
2019-07-29 23:00:00 23.4 2 Sur 11 Nordeste 0 1010 1.7 60
2019-07-29 22:00:00 23.1 5 Nordeste 17 Este 0 1009.2 0.8 60
2019-07-29 21:00:00 25.7 9 Nordeste 21 Este 0 1008.7 -0.5 50
2019-07-29 20:00:00 31.7 6 Nordeste 37 Oeste 0 1008.3 -1.3 33
2019-07-29 19:00:00 27.7 15 Sudoeste 30 Sudoeste 0 1008.4 -1.6 46
2019-07-29 18:00:00 28.5 9 Sudoeste 36 Sudoeste 0 1009.2 -1.2 45
2019-07-29 17:00:00 27.8 14 Sudoeste 30 Sudoeste 0 1009.6 -1 46
2019-07-29 16:00:00 28.9 14 Sudoeste 30 Sudoeste 0 1010 -1 43
2019-07-29 15:00:00 26.2 11 Sudoeste 28 Sudoeste 0 1010.4 -0.7 52
2019-07-29 14:00:00 26.7 10 Sudoeste 26 Sur 0 1010.6 -0.4 50
2019-07-29 13:00:00 29.4 6 Sudoeste 15 Sur 0 1011 -0.2 40
2019-07-29 12:00:00 29.5 7 Sudoeste 21 Sudoeste 0 1011.1 0.1 38
2019-07-29 11:00:00 26.4 15 Oeste 23 Oeste 0 1011 0.5 47
2019-07-29 10:00:00 21.7 3 Sudoeste 8 Sudoeste 0 1011.2 1.3 67
2019-07-29 09:00:00 20 3 Sudoeste 6 Sudoeste 0 1011 1.5 75
2019-07-29 08:00:00 18.8 4 Nordeste 7 Este 0 1010.5 1 79
2019-07-29 07:00:00 18.5 3 Sudoeste 9 Sur 0 1009.9 0.7 76
2019-07-29 06:00:00 18.7 0 Calma 6 Este 0 1009.5 -0.1 75
2019-07-29 05:00:00 19.6 3 Nordeste 12 Nordeste 0 1009.5 -0.2 73
2019-07-29 04:00:00 19.8 4 Nordeste 8 Este 0 1009.2 -0.5 73
2019-07-29 03:00:00 19.8 2 Este 4 Sudeste 0 1009.6 0.1 72
2019-07-29 02:00:00 20.4 3 Nordeste 6 Nordeste 0 1009.7 0.6 69
2019-07-29 01:00:00 21.1 3 Este 11 Este 0 1009.7 1.5 65
2019-07-29 00:00:00 22.1 6 Nordeste 12 Este 0 1009.5 1.6 60
2019-07-28 23:00:00 26.1 3 Sudoeste 18 Oeste 0 1009.1 1.5 46
2019-07-28 22:00:00 27.2 11 Oeste 32 Sudoeste 0 1008.2 0.9 41
2019-07-28 21:00:00 28.4 15 Sudoeste 31 Sudoeste 0 1007.9 0.5 38
2019-07-28 20:00:00 30.3 20 Sudoeste 37 Sudoeste 0 1007.6 -0.2 32
2019-07-28 19:00:00 30.4 19 Sudoeste 33 Sudoeste 0 1007.3 -0.9 32
2019-07-28 18:00:00 28.3 17 Sudoeste 33 Sur 0 1007.4 -1.2 40
2019-07-28 17:00:00 27.1 22 Sudoeste 38 Sudoeste 0 1007.8 -1.3 44
2019-07-28 16:00:00 27 21 Sudoeste 35 Sudoeste 0 1008.2 -1.3 45
2019-07-28 15:00:00 27.6 18 Sudoeste 33 Sudoeste 0 1008.6 -1.1 42
2019-07-28 14:00:00 27.6 15 Sudoeste 27 Sur 0 1009.1 -0.5 43
2019-07-28 13:00:00 28.5 13 Sudoeste 27 Sudoeste 0 1009.5 0.1 38
2019-07-28 12:00:00 28.2 18 Sudoeste 33 Oeste 0 1009.7 0.4 38
2019-07-28 11:00:00 26.7 19 Oeste 37 Oeste 0 1009.6 0.4 42
2019-07-28 10:00:00 24.9 17 Oeste 47 Sudoeste 0 1009.4 0.3 48
2019-07-28 09:00:00 23.8 17 Oeste 35 Oeste 0 1009.3 0.5 50
2019-07-28 08:00:00 22.7 17 Oeste 39 Oeste 0 1009.2 0.3 53
2019-07-28 07:00:00 21.6 15 Oeste 25 Oeste 0 1009.1 -0.5 60
2019-07-28 06:00:00 22 14 Oeste 31 Oeste 0 1008.8 -1.2 59
2019-07-28 05:00:00 22.3 18 Oeste 34 Oeste 0 1008.9 -1.8 59
2019-07-28 04:00:00 22.4 17 Oeste 37 Sudoeste 0 1009.6 -1.5 61
2019-07-28 03:00:00 22.5 22 Oeste 40 Oeste 0 1010 -1.2 63
2019-07-28 02:00:00 23 18 Oeste 40 Oeste 0 1010.7 -0.3 62
2019-07-28 01:00:00 23.3 21 Sudoeste 39 Oeste 0 1011.1 0.3 63
2019-07-28 00:00:00 23.3 23 Sudoeste 41 Sudoeste 0 1011.2 1 63
2019-07-27 23:00:00 23.8 22 Sudoeste 36 Sudoeste 0 1011 1 61
2019-07-26 12:00:00 30.1 26 Sudoeste 49 Sudoeste 0 1012.1 -0.5 40
2019-07-26 11:00:00 27.5 24 Oeste 49 Sudoeste 0 1012.2 0 49
2019-07-26 10:00:00 25 19 Oeste 43 Oeste 0 1012.5 0.7 58
2019-07-26 09:00:00 22.9 18 Sudoeste 30 Sudoeste 0 1012.6 0.7 67
2019-07-26 08:00:00 20.3 3 Oeste 12 Sudoeste 0 1012.2 0.1 72
2019-07-26 07:00:00 20.8 3 Oeste 18 Sudoeste 0 1011.8 -0.4 66
2019-07-26 06:00:00 21.2 3 Este 8 Nordeste 0 1011.9 -0.4 77
2019-07-26 05:00:00 21.5 3 Noroeste 8 Norte 0 1012.1 -0.8 74
2019-07-26 04:00:00 21.8 3 Nordeste 14 Noroeste 0 1012.2 -0.8 71
2019-07-26 03:00:00 22.4 6 Noroeste 19 Oeste 0 1012.3 -0.6 68
2019-07-26 02:00:00 21.6 2 Oeste 8 Nordeste 0 1012.9 0.1 74
2019-07-26 01:00:00 22.4 3 Este 6 Este 0 1013 0.7 75
2019-07-26 00:00:00 22.7 3 Nordeste 9 Nordeste 0 1012.9 0.8 76
2019-07-25 23:00:00 23.6 3 Sudeste 8 Este 0 1012.8 1 74
2019-07-25 22:00:00 24.9 2 Sudoeste 5 Nordeste 0 1012.3 0.3 66
2019-07-25 21:00:00 26.4 2 Sur 6 Sudeste 0 1012.1 -0.2 60
2019-07-25 20:00:00 28.4 4 Sudoeste 8 Sudoeste 0 1011.8 -1 56
2019-07-25 19:00:00 29.6 4 Sudoeste 8 Sur 0 1012 -1.1 51
2019-07-25 18:00:00 29.7 3 Sudoeste 10 Sudoeste 0 1012.3 -1.3 49
2019-07-25 17:00:00 29.4 4 Sudoeste 12 Sur 0 1012.8 -1.2 54
2019-07-25 16:00:00 29.7 8 Sudoeste 12 Sudoeste 0 1013.1 -0.9 54
2019-07-25 15:00:00 29.3 5 Sudoeste 13 Sudoeste 0 1013.6 -0.2 55
2019-07-25 14:00:00 29.5 6 Sudoeste 11 Sur 0 1014 0.6 55
2019-07-25 13:00:00 28.7 6 Sudoeste 11 Sudoeste 0 1014 0.6 57
2019-07-25 12:00:00 28.2 5 Sudoeste 10 Sur 0 1013.8 0.5 57
2019-07-25 11:00:00 26.8 6 Sur 13 Sur 0 1013.4 0.5 61
2019-07-25 10:00:00 25 3 Sudoeste 7 Sudoeste 0 1013.4 0.6 67
2019-07-25 09:00:00 23.6 2 Sur 5 Sudeste 0 1013.3 0.8 72
2019-07-25 08:00:00 22.4 0 Calma 5 Oeste 0 1012.9 0.3 75
2019-07-25 07:00:00 23 4 Oeste 9 Oeste 0 1012.8 -0.1 73
2019-07-25 06:00:00 22.3 5 Oeste 8 Oeste 0 1012.5 -0.6 73
2019-07-25 05:00:00 22.9 3 Sudoeste 8 Oeste 0 1012.6 -0.8 71
2019-07-25 04:00:00 23.7 6 Oeste 15 Oeste 0 1012.9 -0.7 70
2019-07-25 03:00:00 26.2 5 Nordeste 15 Nordeste 0 1013.1 -0.1 50
2019-07-25 02:00:00 25.9 6 Nordeste 17 Nordeste 0 1013.4 0.2 51
2019-07-25 01:00:00 26.1 5 Nordeste 13 Nordeste 0 1013.6 0.8 50
2019-07-25 00:00:00 26.2 6 Nordeste 15 Este 0 1013.2 0.9 49
2019-07-24 23:00:00 25.7 6 Nordeste 14 Este 0 1013.2 1 51
2019-07-24 22:00:00 25.9 7 Nordeste 12 Este 0 1012.8 0.7 58
2019-07-24 21:00:00 27 8 Este 15 Este 0 1012.3 -0.4 53
2019-07-24 20:00:00 28.9 9 Este 15 Este 0 1012.2 -1.2 48
2019-07-24 19:00:00 30.4 7 Este 15 Este 0 1012.1 -1.7 41
2019-07-24 18:00:00 31.3 8 Este 14 Este 0 1012.7 -1.4 38
2019-07-24 17:00:00 31.6 8 Este 13 Este 0 1013.4 -1 38
2019-07-24 16:00:00 31.7 6 Este 16 Este 0 1013.8 -0.7 38
2019-07-24 15:00:00 31.1 9 Este 17 Nordeste 0 1014.1 -0.3 45
2019-07-24 14:00:00 30.4 10 Este 18 Este 0 1014.4 0.1 46
2019-07-24 13:00:00 30.1 10 Este 21 Este 0 1014.5 0.7 46
2019-07-24 12:00:00 29.2 13 Este 22 Este 0 1014.4 0.8 49
2019-07-24 11:00:00 28.5 12 Este 18 Este 0 1014.3 1 51
2019-07-24 10:00:00 27 10 Este 18 Este 0 1013.8 0.8 58
2019-07-24 09:00:00 25.5 4 Nordeste 10 Este 0 1013.6 0.5 69
2019-07-24 08:00:00 23.6 0 Calma 6 Noroeste 0 1013.3 -0.2 74
2019-07-24 07:00:00 23.5 2 Noroeste 6 Noroeste 0 1013 -1.1 74
2019-07-24 06:00:00 23.5 3 Oeste 6 Oeste 0 1013.1 -1.2 75
2019-07-24 05:00:00 23.7 2 Norte 8 Este 0 1013.5 -1 74
2019-07-24 04:00:00 24.1 4 Nordeste 14 Este 0 1014.1 -0.5 73
2019-07-24 03:00:00 24.4 6 Nordeste 19 Nordeste 0 1014.3 -0.5 71
2019-07-24 02:00:00 24.4 8 Nordeste 18 Este 0 1014.5 0.1 68
2019-07-24 01:00:00 25.1 8 Nordeste 22 Nordeste 0 1014.6 0.6 66
2019-07-24 00:00:00 24.3 9 Nordeste 18 Nordeste 0 1014.8 1.1 74
2019-07-23 23:00:00 24.5 8 Nordeste 16 Este 0 1014.4 1 74
2019-07-23 22:00:00 25 9 Nordeste 17 Este 0 1014 0.8 71
2019-07-23 21:00:00 26.2 9 Este 15 Este 0 1013.7 -0.4 64
2019-07-23 20:00:00 29.1 7 Nordeste 14 Este 0 1013.4 -1.2 54
2019-07-23 19:00:00 29.3 9 Este 18 Nordeste 0 1013.2 -1.6 51
2019-07-23 18:00:00 29.7 12 Este 21 Este 0 1014.1 -1.3 49
2019-07-23 17:00:00 30.7 13 Este 24 Este 0 1014.6 -1 43
2019-07-23 16:00:00 30.3 13 Este 26 Este 0 1014.8 -0.9 44
2019-07-23 15:00:00 30.3 16 Este 29 Nordeste 0 1015.4 0 41
2019-07-23 14:00:00 29.3 16 Este 38 Este 0 1015.6 0.3 46
2019-07-23 13:00:00 30.1 15 Este 37 Nordeste 0 1015.7 0.5 42
2019-07-23 12:00:00 28.3 14 Este 28 Este 0 1015.4 0.2 50
2019-07-23 11:00:00 28.2 19 Este 35 Este 0 1015.3 0.2 50
2019-07-23 10:00:00 26.5 13 Este 23 Este 0 1015.2 0.2 57
2019-07-23 09:00:00 26.8 12 Nordeste 22 Nordeste 0 1015.2 0.4 57
2019-07-23 08:00:00 24.9 8 Nordeste 18 Nordeste 0 1015.1 0 63
2019-07-23 07:00:00 24.6 8 Nordeste 24 Nordeste 0 1015 -0.3 67
2019-07-23 06:00:00 23.7 3 Nordeste 8 Norte 0 1014.8 -0.8 76
2019-07-23 05:00:00 23.6 3 Oeste 6 Oeste 0 1015.1 -0.5 77
2019-07-23 04:00:00 23.5 3 Sudoeste 6 Sur 0 1015.3 -0.5 76
2019-07-23 03:00:00 23.7 3 Nordeste 10 Este 0 1015.6 -0.6 76
2019-07-23 02:00:00 23.6 6 Nordeste 22 Nordeste 0 1015.6 -1.3 74
2019-07-23 01:00:00 24.6 15 Nordeste 37 Nordeste 0 1015.8 -0.5 70
2019-07-23 00:00:00 26.2 15 Nordeste 39 Nordeste 0 1016.2 0.4 64
2019-07-22 23:00:00 26.1 10 Nordeste 30 Nordeste 0 1016.9 1.9 65
2019-07-22 22:00:00 25.4 9 Nordeste 21 Nordeste 0 1016.3 1.3 67
2019-07-22 21:00:00 26.1 11 Nordeste 24 Este 0 1015.8 0.2 64
2019-07-22 20:00:00 27.7 12 Este 23 Este 0 1015 -1.4 57
2019-07-22 19:00:00 27.7 15 Este 24 Este 0 1015 -2 58
2019-07-22 18:00:00 28.9 17 Este 27 Nordeste 0 1015.6 -1.7 53
2019-07-22 17:00:00 29.6 15 Este 23 Nordeste 0 1016.4 -1.3 51
2019-07-22 16:00:00 29 10 Este 16 Este 0 1017 -1.2 54
2019-07-22 15:00:00 29.3 8 Este 15 Este 0 1017.3 -1.2 53
2019-07-22 14:00:00 29.3 7 Este 16 Este 0 1017.7 -0.6 54
2019-07-22 13:00:00 29.2 9 Este 15 Este 0 1018.2 -0.1 54
2019-07-22 12:00:00 28.4 8 Este 18 Nordeste 0 1018.5 0.6 58
2019-07-22 11:00:00 27.1 10 Este 21 Este 0 1018.3 0.8 62
2019-07-22 10:00:00 25.5 8 Nordeste 19 Nordeste 0 1018.3 1.1 70
2019-07-22 09:00:00 24.9 10 Nordeste 17 Este 0 1017.9 0.8 72
2019-07-22 08:00:00 24.8 6 Nordeste 13 Este 0 1017.5 0.2 73
2019-07-22 07:00:00 24.6 6 Nordeste 11 Nordeste 0 1017.2 -0.4 75
2019-07-22 06:00:00 24.5 5 Nordeste 13 Este 0 1017.1 -0.9 76
2019-07-22 05:00:00 24.4 6 Nordeste 12 Nordeste 0 1017.3 -0.5 75
2019-07-22 04:00:00 24.8 5 Nordeste 13 Este 0 1017.6 -0.4 74
2019-07-22 03:00:00 24.5 6 Nordeste 13 Este 0 1018 -0.4 74
2019-07-22 02:00:00 24.6 4 Nordeste 11 Este 0 1017.8 -0.5 71
2019-07-22 01:00:00 25.6 8 Nordeste 19 Nordeste 0 1018 0.5 65
2019-07-22 00:00:00 26.1 9 Nordeste 20 Este 0 1018.4 2.1 62
2019-07-21 23:00:00 25.7 9 Nordeste 23 Nordeste 0 1018.3 2.9 62
2019-07-21 22:00:00 25.7 8 Nordeste 16 Nordeste 0 1017.5 2.3 60
2019-07-21 21:00:00 26.9 5 Nordeste 11 Este 0 1016.3 0.6 58
2019-07-21 20:00:00 28.7 5 Este 11 Este 0 1015.4 -0.7 55
2019-07-21 19:00:00 29.6 4 Este 8 Este 0 1015.2 -1.2 53
2019-07-21 18:00:00 29.5 4 Sudeste 9 Este 0 1015.7 -1 54
2019-07-21 17:00:00 30.1 4 Este 12 Este 0 1016.1 -0.9 53
2019-07-21 16:00:00 30.5 6 Este 14 Este 0 1016.4 -0.8 51
2019-07-21 15:00:00 30.4 9 Este 14 Este 0 1016.7 -0.4 50
2019-07-21 14:00:00 30.4 8 Este 14 Este 0 1017 0.6 48
2019-07-21 13:00:00 30.4 6 Este 11 Este 0 1017.2 1.2 45
2019-07-21 12:00:00 28.7 5 Este 9 Sudeste 0 1017.1 1.1 50
2019-07-21 11:00:00 27.1 4 Este 11 Este 0 1016.4 1 54
2019-07-21 10:00:00 25.3 5 Este 9 Este 0 1016 1.5 59
2019-07-21 09:00:00 23.3 5 Este 11 Nordeste 0 1016 1.8 68
2019-07-21 08:00:00 21 7 Este 13 Nordeste 0 1015.4 1.2 73
2019-07-21 07:00:00 21.6 4 Nordeste 6 Este 0 1014.5 -0.6 70
2019-07-21 06:00:00 21.6 2 Sudoeste 8 Sudoeste 0 1014.2 -1.2 70
2019-07-21 05:00:00 22.6 3 Oeste 7 Oeste 0 1014.2 -1.9 69
2019-07-21 04:00:00 22.7 3 Noroeste 6 Noroeste 0 1015.1 -0.8 69
2019-07-21 03:00:00 23.7 2 Oeste 5 Oeste 0 1015.4 0 67
2019-07-21 02:00:00 23.4 0 Calma 3 Oeste 0 1016.1 0.9 68
2019-07-21 01:00:00 24 0 Calma 4 Sudoeste 0 1015.9 1.5 65
2019-07-21 00:00:00 25.6 3 Nordeste 7 Nordeste 0 1015.4 1.9 60
2019-07-20 23:00:00 25.7 2 Nordeste 6 Sudeste 0 1015.2 2.9 62
2019-07-20 22:00:00 26.3 2 Este 7 Oeste 0 1014.4 2.4 57
2019-07-20 21:00:00 28.3 3 Sudoeste 8 Oeste 0 1013.5 1.3 51
2019-07-20 20:00:00 30 4 Sudoeste 8 Sudoeste 0 1012.3 -0.2 45
2019-07-20 19:00:00 31.5 4 Sudoeste 8 Sudoeste 0 1012 -0.7 41
2019-07-20 18:00:00 31.8 4 Sudoeste 11 Sudoeste 0 1012.2 -0.7 40
2019-07-20 17:00:00 32 6 Sudoeste 13 Sudoeste 0 1012.5 -0.5 39
2019-07-20 16:00:00 31.6 8 Sudoeste 17 Sudoeste 0 1012.7 -0.1 39
2019-07-20 15:00:00 31.1 10 Sudoeste 22 Sudoeste 0 1012.9 0.2 40
2019-07-20 14:00:00 29.2 13 Sudoeste 24 Oeste 0 1013 0.5 46
2019-07-20 13:00:00 28.4 11 Sudoeste 25 Sudoeste 0 1012.8 0.5 48
2019-07-20 12:00:00 27.8 7 Sudoeste 13 Sudoeste 0 1012.7 0.6 52
2019-07-20 11:00:00 25.7 4 Sudoeste 9 Sudoeste 0 1012.5 0.9 55
2019-07-20 10:00:00 24.5 4 Sudoeste 7 Sudoeste 0 1012.3 1.1 60
2019-07-20 09:00:00 23.2 2 Sur 6 Sudoeste 0 1012.1 1 63
2019-07-20 08:00:00 23.3 0 Calma 4 Oeste 0 1011.6 0.3 65
2019-07-20 07:00:00 23.2 0 Calma 5 Noroeste 0 1011.2 -0.5 61
2019-07-20 06:00:00 23.3 0 Calma 5 Norte 0 1011.1 -1.2 58
2019-07-20 05:00:00 24.3 3 Norte 10 Este 0 1011.3 -1.5 56
2019-07-20 04:00:00 24.8 5 Nordeste 13 Este 0 1011.7 -1.1 53
2019-07-20 03:00:00 25.2 7 Nordeste 15 Este 0 1012.3 0 54
2019-07-20 02:00:00 25.1 7 Nordeste 19 Nordeste 0 1012.8 1 52
2019-07-20 01:00:00 26.1 6 Nordeste 27 Nordeste 0 1012.8 1.5 45
2019-07-20 00:00:00 26.7 11 Nordeste 26 Este 0 1012.3 1 40
2019-07-19 23:00:00 23 9 Nordeste 19 Este 0 1011.8 0.5 72
2019-07-19 22:00:00 24.6 10 Nordeste 19 Este 0 1011.3 0.2 66
2019-07-19 21:00:00 25.3 8 Nordeste 20 Nordeste 0 1011.3 0 66
2019-07-19 20:00:00 26.2 12 Nordeste 23 Este 0 1011.3 -0.7 63
2019-07-19 19:00:00 26.7 13 Este 24 Este 0 1011.1 -1.2 60
2019-07-19 18:00:00 27.4 15 Nordeste 28 Este 0 1011.3 -1.5 58
2019-07-19 17:00:00 27.7 17 Este 36 Este 0 1012 -1.3 56
2019-07-19 16:00:00 27.9 11 Nordeste 39 Este 0 1012.3 -1.2 54
2019-07-19 15:00:00 27.9 15 Nordeste 35 Nordeste 0 1012.8 -0.3 53
2019-07-19 14:00:00 27 19 Este 31 Este 0 1013.3 0 57
2019-07-19 13:00:00 26.5 16 Este 26 Nordeste 0 1013.5 0.3 59
2019-07-19 12:00:00 25.8 17 Este 25 Este 0 1013.1 -0.1 61
2019-07-19 11:00:00 23.9 9 Este 22 Nordeste 0 1013.3 0.2 64
2019-07-19 10:00:00 24 13 Nordeste 23 Nordeste 0 1013.2 0.3 65
2019-07-19 09:00:00 22.5 12 Nordeste 22 Este 0 1013.2 0.5 73
2019-07-19 08:00:00 21.6 9 Nordeste 21 Nordeste 0 1013.1 0.5 65
2019-07-19 07:00:00 20.5 7 Nordeste 18 Nordeste 0 1012.9 -0.1 63
2019-07-19 06:00:00 19.5 6 Nordeste 14 Este 0 1012.7 -0.6 66
2019-07-19 05:00:00 20.3 8 Nordeste 15 Nordeste 0 1012.6 -0.8 63
2019-07-19 04:00:00 20.4 8 Nordeste 17 Nordeste 0 1013 -0.4 63
2019-07-19 03:00:00 19.5 6 Nordeste 10 Nordeste 0 1013.3 0.1 68
2019-07-19 02:00:00 19.9 4 Nordeste 12 Nordeste 0 1013.4 0.3 71
2019-07-19 01:00:00 20.4 6 Nordeste 13 Este 0 1013.4 0.9 71
2019-07-19 00:00:00 20.2 6 Nordeste 11 Este 0 1013.2 0.8 71